Rib Mountain, Wisconsin
Current Conditions -  °F | °C
As of 11:54 AM on Friday 24 Oct 2014 (Local Time) from KAUW Reporting Station
Haze Haze  
Wind Chill: 44°   Ceiling: 200
Heat Index: 47°   Visibility: 2mi
Dew Point: 46°   Wind: 6mph
Humidity: 97%   Direction: 210°SSW
Pressure: 29.98"   Gusts: NA
Location:  45.0598°N, 89.4871°W
Report Text: KAUW 241654Z AUTO 21005KT 2SM BR OVC002 08/08 A2998 RMK AO2 SLP162 T00830078
Loading
Personal Weather Stations






























Interactive Weather Map
Tropical Storm Tracking
New forecast layout! Learn more

10-Day Weather Forecast

Advertisements
Track Severe Weather on mobile